Sikinos — 9HA2865 — position and weather

sailwx.info

Track history (hours):
 
Tides and Currents Weather Stations Pressure Air Temp Water Temp Dewpoint Dewpoint Depression Visibility Wind Speed Wind Dir Waves Ship Positions

Sikinos

Last reported at 2017-Feb-21 07:31 UTC. Time now 2017-Feb-21 08:00 UTC.
Position N 51°52' E 004°19'.

Length 90 m; draft 4.6 m.

Type: Ship (hazmat cat A). MMSI: 256462000.

Date/timePositionNaut miles runAvg speedWind from/ knotsBaromVisibWave heightAir tempDewpointWater temp
2017-Feb-21 07:31N 51°52' E 004°19'0 0.0
2017-Feb-21 06:25N 51°52' E 004°19'0 0.0
2017-Feb-21 05:25N 51°52' E 004°19'0 0.0
2017-Feb-21 04:31N 51°52' E 004°19'0 0.0
2017-Feb-21 03:31N 51°52' E 004°19'0 0.0
2017-Feb-21 02:31N 51°52' E 004°19'0 0.0
2017-Feb-21 01:31N 51°52' E 004°19'0 0.0
2017-Feb-21 00:28N 51°52' E 004°19'2 1.7
2017-Feb-20 23:33N 51°54' E 004°18'1110.9
2017-Feb-20 22:33N 51°59' E 004°02'10 9.7
2017-Feb-20 21:33N 51°59' E 003°47'3 0.6
2017-Feb-20 16:22N 51°57' E 003°43'0 0.0
2017-Feb-20 15:31N 51°57' E 003°43'1 1.4
2017-Feb-20 14:33N 51°58' E 003°42'4210.4
2017-Feb-20 10:31N 51°36' E 002°44'1212.1
2017-Feb-20 09:34N 51°24' E 002°44'1211.7
2017-Feb-20 08:34N 51°13' E 002°38'1111.1
2017-Feb-20 07:34N 51°05' E 002°27'4 4.3
2017-Feb-20 06:32N 51°03' E 002°20'0 0.4
2017-Feb-20 05:32N 51°03' E 002°19'0 0.0
2017-Feb-20 04:20N 51°03' E 002°19'0 0.0
2017-Feb-20 01:29N 51°03' E 002°19'0 0.0
2017-Feb-19 23:26N 51°03' E 002°19'0 0.0
2017-Feb-19 22:09N 51°03' E 002°19'0 0.1
2017-Feb-19 16:13N 51°03' E 002°19'0 0.0
2017-Feb-19 13:16N 51°03' E 002°19'0 0.0
2017-Feb-19 10:14N 51°03' E 002°19'2 2.9
2017-Feb-19 09:32N 51°03' E 002°22'2 2.0
2017-Feb-19 08:33N 51°04' E 002°20'1212.4
2017-Feb-19 07:33N 51°02' E 001°60'5 5.3
2017-Feb-19 06:33N 51°04' E 001°52'7 7.4
2017-Feb-19 05:33N 51°07' E 002°03'1110.6
2017-Feb-19 04:33N 51°10' E 002°19'1111.2
2017-Feb-19 03:33N 51°17' E 002°32'1010.5
2017-Feb-19 02:33N 51°22' E 002°47'1212.2
2017-Feb-19 01:33N 51°22' E 003°07'4 3.6
2017-Feb-19 00:32N 51°20' E 003°12'0 0.0
2017-Feb-18 23:32N 51°20' E 003°12'0 0.0
2017-Feb-18 22:32N 51°20' E 003°12'0 0.0
2017-Feb-18 21:32N 51°20' E 003°12'0 0.0
2017-Feb-18 20:32N 51°20' E 003°12'0 0.0
2017-Feb-18 19:32N 51°20' E 003°12'0 0.0
2017-Feb-18 18:32N 51°20' E 003°12'0 0.0
2017-Feb-18 17:32N 51°20' E 003°12'0 0.0
2017-Feb-18 16:32N 51°20' E 003°12'0 0.0
2017-Feb-18 15:32N 51°20' E 003°12'0 0.0
2017-Feb-18 14:32N 51°20' E 003°12'0 0.0
2017-Feb-18 13:32N 51°20' E 003°12'0 0.0
2017-Feb-18 12:32N 51°20' E 003°12'0 0.0
2017-Feb-18 11:32N 51°20' E 003°12'0 0.0
2017-Feb-18 10:32N 51°20' E 003°12'0 0.0
2017-Feb-18 09:32N 51°20' E 003°12'0 0.0
2017-Feb-18 08:32N 51°20' E 003°12'0 0.0
2017-Feb-18 07:32N 51°20' E 003°12'0 0.0
2017-Feb-18 06:32N 51°20' E 003°12'0 0.0
2017-Feb-18 05:32N 51°20' E 003°12'0 0.0
2017-Feb-18 04:32N 51°20' E 003°12'0 0.0
2017-Feb-18 03:32N 51°20' E 003°12'0 0.0
2017-Feb-18 02:32N 51°20' E 003°12'0 0.0
2017-Feb-18 01:32N 51°20' E 003°12'0 0.0
2017-Feb-18 00:32N 51°20' E 003°12'0 0.0
2017-Feb-17 23:32N 51°20' E 003°12'0 0.0
2017-Feb-17 22:32N 51°20' E 003°12'0 0.0
2017-Feb-17 21:32N 51°20' E 003°12'0 0.0
2017-Feb-17 20:33N 51°20' E 003°12'8 8.0
2017-Feb-17 19:33N 51°21' E 002°59'1010.5
2017-Feb-17 18:33N 51°22' E 002°43'9 9.3
2017-Feb-17 17:33N 51°22' E 002°28'1111.4
2017-Feb-17 16:33N 51°19' E 002°10'1211.9
2017-Feb-17 15:33N 51°27' E 001°56'1211.5
2017-Feb-17 14:33N 51°29' E 001°37'9 9.3
2017-Feb-17 13:33N 51°25' E 001°24'0 0.0
2017-Feb-17 12:33N 51°25' E 001°24'0 0.1
2017-Feb-17 11:33N 51°25' E 001°24'0 0.0
2017-Feb-17 10:33N 51°25' E 001°24'0 0.0
2017-Feb-17 09:33N 51°25' E 001°24'0 0.0
2017-Feb-17 08:33N 51°25' E 001°24'0 0.0
2017-Feb-17 07:33N 51°25' E 001°24'0 0.0
2017-Feb-17 06:33N 51°25' E 001°24'0 0.0
2017-Feb-17 05:33N 51°25' E 001°24'0 0.0
2017-Feb-17 04:33N 51°25' E 001°24'0 0.1
2017-Feb-17 03:33N 51°25' E 001°24'0 0.0
2017-Feb-17 02:33N 51°25' E 001°24'0 0.0
2017-Feb-17 01:33N 51°25' E 001°24'0 0.0
2017-Feb-17 00:33N 51°25' E 001°24'0 0.1
2017-Feb-16 23:33N 51°25' E 001°24'0 0.1
2017-Feb-16 22:33N 51°25' E 001°24'0 0.0
2017-Feb-16 21:33N 51°25' E 001°24'0 0.0
2017-Feb-16 20:33N 51°25' E 001°24'0 0.0
2017-Feb-16 19:33N 51°25' E 001°24'0 0.0
2017-Feb-16 18:33N 51°25' E 001°24'0 0.0
2017-Feb-16 17:33N 51°25' E 001°24'0 0.1
2017-Feb-16 16:33N 51°25' E 001°24'0 0.1
2017-Feb-16 15:33N 51°25' E 001°24'0 0.0
2017-Feb-16 14:33N 51°25' E 001°24'0 0.0
2017-Feb-16 13:33N 51°25' E 001°24'0 0.0
2017-Feb-16 12:33N 51°25' E 001°24'0 0.1
2017-Feb-16 11:33N 51°25' E 001°24'0 0.1
2017-Feb-16 10:33N 51°25' E 001°24'0 0.0
2017-Feb-16 09:33N 51°25' E 001°24'0 0.0
2017-Feb-16 08:33N 51°25' E 001°24'0 0.0
2017-Feb-16 07:33N 51°25' E 001°24'0 0.0
2017-Feb-16 06:33N 51°25' E 001°24'0 0.0
2017-Feb-16 05:33N 51°25' E 001°24'0 0.0
2017-Feb-16 04:33N 51°25' E 001°24'0 0.1
2017-Feb-16 03:33N 51°25' E 001°24'0 0.1
2017-Feb-16 02:33N 51°25' E 001°24'0 0.0
2017-Feb-16 01:33N 51°25' E 001°24'0 0.0
2017-Feb-16 00:33N 51°25' E 001°24'0 0.0
2017-Feb-15 23:33N 51°25' E 001°24'0 0.1
2017-Feb-15 22:33N 51°25' E 001°24'0 0.1
2017-Feb-15 21:33N 51°25' E 001°24'0 0.0
2017-Feb-15 20:33N 51°25' E 001°24'0 0.0
2017-Feb-15 19:33N 51°25' E 001°24'0 0.0
2017-Feb-15 18:34N 51°25' E 001°24'0 0.0
2017-Feb-15 17:33N 51°25' E 001°24'0 0.0
2017-Feb-15 16:33N 51°25' E 001°24'0 0.1
2017-Feb-15 15:34N 51°25' E 001°24'1010.0
2017-Feb-15 14:34N 51°29' E 001°39'5 3.6
2017-Feb-15 13:08N 51°28' E 001°47'0 0.1
2017-Feb-15 12:32N 51°28' E 001°47'0 0.0
2017-Feb-15 11:32N 51°28' E 001°47'0 0.0
2017-Feb-15 10:32N 51°28' E 001°47'0 0.2
2017-Feb-15 09:29N 51°28' E 001°47'0 0.1
2017-Feb-15 08:29N 51°28' E 001°47'0 0.1
2017-Feb-15 07:32N 51°28' E 001°47'0 0.0
2017-Feb-15 06:33N 51°28' E 001°47'0 0.0
2017-Feb-15 05:33N 51°28' E 001°47'0 0.5
2017-Feb-15 04:34N 51°29' E 001°48'1111.4
2017-Feb-15 03:33N 51°24' E 002°05'1110.8
2017-Feb-15 02:33N 51°21' E 002°21'1111.0
2017-Feb-15 01:33N 51°23' E 002°39'1111.1
2017-Feb-15 00:33N 51°22' E 002°56'10 9.8
2017-Feb-14 23:33N 51°21' E 003°12'0 0.0
2017-Feb-14 22:33N 51°21' E 003°12'0 0.0
2017-Feb-14 21:33N 51°21' E 003°12'0 0.0
2017-Feb-14 20:33N 51°21' E 003°12'0 0.0
2017-Feb-14 19:33N 51°21' E 003°12'0 0.0
2017-Feb-14 18:33N 51°21' E 003°12'0 0.0
2017-Feb-14 17:33N 51°21' E 003°12'0 0.0
2017-Feb-14 16:33N 51°21' E 003°12'0 0.0
2017-Feb-14 15:33N 51°21' E 003°12'0 0.0
2017-Feb-14 14:33N 51°21' E 003°12'0 0.0
2017-Feb-14 13:27N 51°21' E 003°12'0 0.0
2017-Feb-14 12:33N 51°21' E 003°12'0 0.0
2017-Feb-14 11:33N 51°21' E 003°12'0 0.0
2017-Feb-14 10:33N 51°21' E 003°12'0 0.0
2017-Feb-14 09:33N 51°21' E 003°12'0 0.0
2017-Feb-14 08:33N 51°21' E 003°12'0 0.0
2017-Feb-14 07:33N 51°21' E 003°12'0 0.0
2017-Feb-14 06:33N 51°21' E 003°12'0 0.0
2017-Feb-14 05:33N 51°21' E 003°12'0 0.0
2017-Feb-14 04:33N 51°21' E 003°12'0 0.0
2017-Feb-14 03:33N 51°21' E 003°12'0 0.0
2017-Feb-14 02:33N 51°21' E 003°12'0 0.0
2017-Feb-14 01:33N 51°21' E 003°12'0 0.0
2017-Feb-14 00:33N 51°21' E 003°12'0 0.0
2017-Feb-13 23:33N 51°21' E 003°12'0 0.0
2017-Feb-13 22:33N 51°21' E 003°12'0 0.0
2017-Feb-13 21:33N 51°21' E 003°12'0 0.0
2017-Feb-13 20:33N 51°21' E 003°12'0 0.0
2017-Feb-13 19:33N 51°21' E 003°12'0 0.0
2017-Feb-13 18:33N 51°21' E 003°12'0 0.0
2017-Feb-13 17:33N 51°21' E 003°12'0 0.0
2017-Feb-13 16:33N 51°21' E 003°12'0 0.0
2017-Feb-13 15:33N 51°21' E 003°12'0 0.0
2017-Feb-13 14:33N 51°21' E 003°12'0 0.0
2017-Feb-13 13:33N 51°21' E 003°12'0 0.0
2017-Feb-13 12:33N 51°21' E 003°12'0 0.0
2017-Feb-13 11:33N 51°21' E 003°12'0 0.0
2017-Feb-13 10:33N 51°21' E 003°12'0 0.0
2017-Feb-13 09:33N 51°21' E 003°12'0 0.0
2017-Feb-13 08:33N 51°21' E 003°12'0 0.0
2017-Feb-13 07:33N 51°21' E 003°12'0 0.0
2017-Feb-13 06:33N 51°21' E 003°12'0 0.0
2017-Feb-13 05:33N 51°21' E 003°12'0 0.0
2017-Feb-13 04:33N 51°21' E 003°12'0 0.0
2017-Feb-13 03:33N 51°21' E 003°12'0 0.0
2017-Feb-13 02:33N 51°21' E 003°12'0 0.0
2017-Feb-13 01:33N 51°21' E 003°12'0 0.0
2017-Feb-13 00:33N 51°21' E 003°12'0 0.0
2017-Feb-12 23:33N 51°21' E 003°12'0 0.0
2017-Feb-12 22:33N 51°21' E 003°12'0 0.0
2017-Feb-12 21:33N 51°21' E 003°12'0 0.0
2017-Feb-12 20:33N 51°21' E 003°12'0 0.0
2017-Feb-12 19:33N 51°21' E 003°12'0 0.0
2017-Feb-12 18:33N 51°21' E 003°12'0 0.0
2017-Feb-12 17:33N 51°21' E 003°12'0 0.0
2017-Feb-12 16:33N 51°21' E 003°12'0 0.0
2017-Feb-12 15:33N 51°21' E 003°12'0 0.0
2017-Feb-12 14:33N 51°21' E 003°12'0 0.1
2017-Feb-12 13:33N 51°21' E 003°12'7 7.0
2017-Feb-12 12:33N 51°24' E 003°22'10 9.5
2017-Feb-12 11:33N 51°26' E 003°37'1010.2
2017-Feb-12 10:33N 51°21' E 003°51'7 7.4
2017-Feb-12 09:33N 51°23' E 004°03'9 9.3
2017-Feb-12 08:33N 51°21' E 004°17'2 1.5
2017-Feb-12 07:33N 51°19' E 004°19'2 1.9
2017-Feb-12 06:22N 51°17' E 004°20'0 0.0
2017-Feb-12 05:31N 51°17' E 004°20'0 0.0
2017-Feb-12 04:31N 51°17' E 004°20'0 0.0
2017-Feb-12 03:22N 51°17' E 004°20'0 0.0
2017-Feb-12 01:31N 51°17' E 004°20'0 0.0
2017-Feb-11 21:25N 51°17' E 004°20'1 0.9
2017-Feb-11 20:33N 51°17' E 004°20'3 3.1
2017-Feb-11 19:33N 51°19' E 004°16'7 6.8
2017-Feb-11 18:33N 51°22' E 004°07'6 6.0
2017-Feb-11 17:33N 51°24' E 003°58'8 8.0
2017-Feb-11 16:33N 51°22' E 003°46'9 8.9
2017-Feb-11 15:33N 51°25' E 003°33'9 9.4
2017-Feb-11 14:33N 51°24' E 003°18'1312.9
2017-Feb-11 13:33N 51°23' E 002°57'1212.2
2017-Feb-11 12:33N 51°23' E 002°38'5 5.1
2017-Feb-11 11:33N 51°22' E 002°30'1413.3
2017-Feb-11 10:29N 51°15' E 002°10'1112.0
2017-Feb-11 09:33N 51°09' E 001°55'1110.9
2017-Feb-11 08:33N 51°02' E 001°41'1010.4
2017-Feb-11 07:33N 50°55' E 001°29'  
Track history (hours):
 
Tides and Currents Weather Stations Pressure Air Temp Water Temp Dewpoint Dewpoint Depression Visibility Wind Speed Wind Dir Waves Ship Positions

Sikinos

Last reported at 2017-Feb-21 07:31 UTC. Time now 2017-Feb-21 08:00 UTC.
Position N 51°52' E 004°19'.

Length 90 m; draft 4.6 m.

Type: Ship (hazmat cat A). MMSI: 256462000.

Date/timePositionNaut miles runAvg speedWind from/ knotsBaromVisibWave heightAir tempDewpointWater temp
2017-Feb-21 07:31N 51°52' E 004°19'0 0.0
2017-Feb-21 06:25N 51°52' E 004°19'0 0.0
2017-Feb-21 05:25N 51°52' E 004°19'0 0.0
2017-Feb-21 04:31N 51°52' E 004°19'0 0.0
2017-Feb-21 03:31N 51°52' E 004°19'0 0.0
2017-Feb-21 02:31N 51°52' E 004°19'0 0.0
2017-Feb-21 01:31N 51°52' E 004°19'0 0.0
2017-Feb-21 00:28N 51°52' E 004°19'2 1.7
2017-Feb-20 23:33N 51°54' E 004°18'1110.9
2017-Feb-20 22:33N 51°59' E 004°02'10 9.7
2017-Feb-20 21:33N 51°59' E 003°47'3 0.6
2017-Feb-20 16:22N 51°57' E 003°43'0 0.0
2017-Feb-20 15:31N 51°57' E 003°43'1 1.4
2017-Feb-20 14:33N 51°58' E 003°42'4210.4
2017-Feb-20 10:31N 51°36' E 002°44'1212.1
2017-Feb-20 09:34N 51°24' E 002°44'1211.7
2017-Feb-20 08:34N 51°13' E 002°38'1111.1
2017-Feb-20 07:34N 51°05' E 002°27'4 4.3
2017-Feb-20 06:32N 51°03' E 002°20'0 0.4
2017-Feb-20 05:32N 51°03' E 002°19'0 0.0
2017-Feb-20 04:20N 51°03' E 002°19'0 0.0
2017-Feb-20 01:29N 51°03' E 002°19'0 0.0
2017-Feb-19 23:26N 51°03' E 002°19'0 0.0
2017-Feb-19 22:09N 51°03' E 002°19'0 0.1
2017-Feb-19 16:13N 51°03' E 002°19'0 0.0
2017-Feb-19 13:16N 51°03' E 002°19'0 0.0
2017-Feb-19 10:14N 51°03' E 002°19'2 2.9
2017-Feb-19 09:32N 51°03' E 002°22'2 2.0
2017-Feb-19 08:33N 51°04' E 002°20'1212.4
2017-Feb-19 07:33N 51°02' E 001°60'5 5.3
2017-Feb-19 06:33N 51°04' E 001°52'7 7.4
2017-Feb-19 05:33N 51°07' E 002°03'1110.6
2017-Feb-19 04:33N 51°10' E 002°19'1111.2
2017-Feb-19 03:33N 51°17' E 002°32'1010.5
2017-Feb-19 02:33N 51°22' E 002°47'1212.2
2017-Feb-19 01:33N 51°22' E 003°07'4 3.6
2017-Feb-19 00:32N 51°20' E 003°12'0 0.0
2017-Feb-18 23:32N 51°20' E 003°12'0 0.0
2017-Feb-18 22:32N 51°20' E 003°12'0 0.0
2017-Feb-18 21:32N 51°20' E 003°12'0 0.0
2017-Feb-18 20:32N 51°20' E 003°12'0 0.0
2017-Feb-18 19:32N 51°20' E 003°12'0 0.0
2017-Feb-18 18:32N 51°20' E 003°12'0 0.0
2017-Feb-18 17:32N 51°20' E 003°12'0 0.0
2017-Feb-18 16:32N 51°20' E 003°12'0 0.0
2017-Feb-18 15:32N 51°20' E 003°12'0 0.0
2017-Feb-18 14:32N 51°20' E 003°12'0 0.0
2017-Feb-18 13:32N 51°20' E 003°12'0 0.0
2017-Feb-18 12:32N 51°20' E 003°12'0 0.0
2017-Feb-18 11:32N 51°20' E 003°12'0 0.0
2017-Feb-18 10:32N 51°20' E 003°12'0 0.0
2017-Feb-18 09:32N 51°20' E 003°12'0 0.0
2017-Feb-18 08:32N 51°20' E 003°12'0 0.0
2017-Feb-18 07:32N 51°20' E 003°12'0 0.0
2017-Feb-18 06:32N 51°20' E 003°12'0 0.0
2017-Feb-18 05:32N 51°20' E 003°12'0 0.0
2017-Feb-18 04:32N 51°20' E 003°12'0 0.0
2017-Feb-18 03:32N 51°20' E 003°12'0 0.0
2017-Feb-18 02:32N 51°20' E 003°12'0 0.0
2017-Feb-18 01:32N 51°20' E 003°12'0 0.0
2017-Feb-18 00:32N 51°20' E 003°12'0 0.0
2017-Feb-17 23:32N 51°20' E 003°12'0 0.0
2017-Feb-17 22:32N 51°20' E 003°12'0 0.0
2017-Feb-17 21:32N 51°20' E 003°12'0 0.0
2017-Feb-17 20:33N 51°20' E 003°12'8 8.0
2017-Feb-17 19:33N 51°21' E 002°59'1010.5
2017-Feb-17 18:33N 51°22' E 002°43'9 9.3
2017-Feb-17 17:33N 51°22' E 002°28'1111.4
2017-Feb-17 16:33N 51°19' E 002°10'1211.9
2017-Feb-17 15:33N 51°27' E 001°56'1211.5
2017-Feb-17 14:33N 51°29' E 001°37'9 9.3
2017-Feb-17 13:33N 51°25' E 001°24'0 0.0
2017-Feb-17 12:33N 51°25' E 001°24'0 0.1
2017-Feb-17 11:33N 51°25' E 001°24'0 0.0
2017-Feb-17 10:33N 51°25' E 001°24'0 0.0
2017-Feb-17 09:33N 51°25' E 001°24'0 0.0
2017-Feb-17 08:33N 51°25' E 001°24'0 0.0
2017-Feb-17 07:33N 51°25' E 001°24'0 0.0
2017-Feb-17 06:33N 51°25' E 001°24'0 0.0
2017-Feb-17 05:33N 51°25' E 001°24'0 0.0
2017-Feb-17 04:33N 51°25' E 001°24'0 0.1
2017-Feb-17 03:33N 51°25' E 001°24'0 0.0
2017-Feb-17 02:33N 51°25' E 001°24'0 0.0
2017-Feb-17 01:33N 51°25' E 001°24'0 0.0
2017-Feb-17 00:33N 51°25' E 001°24'0 0.1
2017-Feb-16 23:33N 51°25' E 001°24'0 0.1
2017-Feb-16 22:33N 51°25' E 001°24'0 0.0
2017-Feb-16 21:33N 51°25' E 001°24'0 0.0
2017-Feb-16 20:33N 51°25' E 001°24'0 0.0
2017-Feb-16 19:33N 51°25' E 001°24'0 0.0
2017-Feb-16 18:33N 51°25' E 001°24'0 0.0
2017-Feb-16 17:33N 51°25' E 001°24'0 0.1
2017-Feb-16 16:33N 51°25' E 001°24'0 0.1
2017-Feb-16 15:33N 51°25' E 001°24'0 0.0
2017-Feb-16 14:33N 51°25' E 001°24'0 0.0
2017-Feb-16 13:33N 51°25' E 001°24'0 0.0
2017-Feb-16 12:33N 51°25' E 001°24'0 0.1
2017-Feb-16 11:33N 51°25' E 001°24'0 0.1
2017-Feb-16 10:33N 51°25' E 001°24'0 0.0
2017-Feb-16 09:33N 51°25' E 001°24'0 0.0
2017-Feb-16 08:33N 51°25' E 001°24'0 0.0
2017-Feb-16 07:33N 51°25' E 001°24'0 0.0
2017-Feb-16 06:33N 51°25' E 001°24'0 0.0
2017-Feb-16 05:33N 51°25' E 001°24'0 0.0
2017-Feb-16 04:33N 51°25' E 001°24'0 0.1
2017-Feb-16 03:33N 51°25' E 001°24'0 0.1
2017-Feb-16 02:33N 51°25' E 001°24'0 0.0
2017-Feb-16 01:33N 51°25' E 001°24'0 0.0
2017-Feb-16 00:33N 51°25' E 001°24'0 0.0
2017-Feb-15 23:33N 51°25' E 001°24'0 0.1
2017-Feb-15 22:33N 51°25' E 001°24'0 0.1
2017-Feb-15 21:33N 51°25' E 001°24'0 0.0
2017-Feb-15 20:33N 51°25' E 001°24'0 0.0
2017-Feb-15 19:33N 51°25' E 001°24'0 0.0
2017-Feb-15 18:34N 51°25' E 001°24'0 0.0
2017-Feb-15 17:33N 51°25' E 001°24'0 0.0
2017-Feb-15 16:33N 51°25' E 001°24'0 0.1
2017-Feb-15 15:34N 51°25' E 001°24'1010.0
2017-Feb-15 14:34N 51°29' E 001°39'5 3.6
2017-Feb-15 13:08N 51°28' E 001°47'0 0.1
2017-Feb-15 12:32N 51°28' E 001°47'0 0.0
2017-Feb-15 11:32N 51°28' E 001°47'0 0.0
2017-Feb-15 10:32N 51°28' E 001°47'0 0.2
2017-Feb-15 09:29N 51°28' E 001°47'0 0.1
2017-Feb-15 08:29N 51°28' E 001°47'0 0.1
2017-Feb-15 07:32N 51°28' E 001°47'0 0.0
2017-Feb-15 06:33N 51°28' E 001°47'0 0.0
2017-Feb-15 05:33N 51°28' E 001°47'0 0.5
2017-Feb-15 04:34N 51°29' E 001°48'1111.4
2017-Feb-15 03:33N 51°24' E 002°05'1110.8
2017-Feb-15 02:33N 51°21' E 002°21'1111.0
2017-Feb-15 01:33N 51°23' E 002°39'1111.1
2017-Feb-15 00:33N 51°22' E 002°56'10 9.8
2017-Feb-14 23:33N 51°21' E 003°12'0 0.0
2017-Feb-14 22:33N 51°21' E 003°12'0 0.0
2017-Feb-14 21:33N 51°21' E 003°12'0 0.0
2017-Feb-14 20:33N 51°21' E 003°12'0 0.0
2017-Feb-14 19:33N 51°21' E 003°12'0 0.0
2017-Feb-14 18:33N 51°21' E 003°12'0 0.0
2017-Feb-14 17:33N 51°21' E 003°12'0 0.0
2017-Feb-14 16:33N 51°21' E 003°12'0 0.0
2017-Feb-14 15:33N 51°21' E 003°12'0 0.0
2017-Feb-14 14:33N 51°21' E 003°12'0 0.0
2017-Feb-14 13:27N 51°21' E 003°12'0 0.0
2017-Feb-14 12:33N 51°21' E 003°12'0 0.0
2017-Feb-14 11:33N 51°21' E 003°12'0 0.0
2017-Feb-14 10:33N 51°21' E 003°12'0 0.0
2017-Feb-14 09:33N 51°21' E 003°12'0 0.0
2017-Feb-14 08:33N 51°21' E 003°12'0 0.0
2017-Feb-14 07:33N 51°21' E 003°12'0 0.0
2017-Feb-14 06:33N 51°21' E 003°12'0 0.0
2017-Feb-14 05:33N 51°21' E 003°12'0 0.0
2017-Feb-14 04:33N 51°21' E 003°12'0 0.0
2017-Feb-14 03:33N 51°21' E 003°12'0 0.0
2017-Feb-14 02:33N 51°21' E 003°12'0 0.0
2017-Feb-14 01:33N 51°21' E 003°12'0 0.0
2017-Feb-14 00:33N 51°21' E 003°12'0 0.0
2017-Feb-13 23:33N 51°21' E 003°12'0 0.0
2017-Feb-13 22:33N 51°21' E 003°12'0 0.0
2017-Feb-13 21:33N 51°21' E 003°12'0 0.0
2017-Feb-13 20:33N 51°21' E 003°12'0 0.0
2017-Feb-13 19:33N 51°21' E 003°12'0 0.0
2017-Feb-13 18:33N 51°21' E 003°12'0 0.0
2017-Feb-13 17:33N 51°21' E 003°12'0 0.0
2017-Feb-13 16:33N 51°21' E 003°12'0 0.0
2017-Feb-13 15:33N 51°21' E 003°12'0 0.0
2017-Feb-13 14:33N 51°21' E 003°12'0 0.0
2017-Feb-13 13:33N 51°21' E 003°12'0 0.0
2017-Feb-13 12:33N 51°21' E 003°12'0 0.0
2017-Feb-13 11:33N 51°21' E 003°12'0 0.0
2017-Feb-13 10:33N 51°21' E 003°12'0 0.0
2017-Feb-13 09:33N 51°21' E 003°12'0 0.0
2017-Feb-13 08:33N 51°21' E 003°12'0 0.0
2017-Feb-13 07:33N 51°21' E 003°12'0 0.0
2017-Feb-13 06:33N 51°21' E 003°12'0 0.0
2017-Feb-13 05:33N 51°21' E 003°12'0 0.0
2017-Feb-13 04:33N 51°21' E 003°12'0 0.0
2017-Feb-13 03:33N 51°21' E 003°12'0 0.0
2017-Feb-13 02:33N 51°21' E 003°12'0 0.0
2017-Feb-13 01:33N 51°21' E 003°12'0 0.0
2017-Feb-13 00:33N 51°21' E 003°12'0 0.0
2017-Feb-12 23:33N 51°21' E 003°12'0 0.0
2017-Feb-12 22:33N 51°21' E 003°12'0 0.0
2017-Feb-12 21:33N 51°21' E 003°12'0 0.0
2017-Feb-12 20:33N 51°21' E 003°12'0 0.0
2017-Feb-12 19:33N 51°21' E 003°12'0 0.0
2017-Feb-12 18:33N 51°21' E 003°12'0 0.0
2017-Feb-12 17:33N 51°21' E 003°12'0 0.0
2017-Feb-12 16:33N 51°21' E 003°12'0 0.0
2017-Feb-12 15:33N 51°21' E 003°12'0 0.0
2017-Feb-12 14:33N 51°21' E 003°12'0 0.1
2017-Feb-12 13:33N 51°21' E 003°12'7 7.0
2017-Feb-12 12:33N 51°24' E 003°22'10 9.5
2017-Feb-12 11:33N 51°26' E 003°37'1010.2
2017-Feb-12 10:33N 51°21' E 003°51'7 7.4
2017-Feb-12 09:33N 51°23' E 004°03'9 9.3
2017-Feb-12 08:33N 51°21' E 004°17'2 1.5
2017-Feb-12 07:33N 51°19' E 004°19'2 1.9
2017-Feb-12 06:22N 51°17' E 004°20'0 0.0
2017-Feb-12 05:31N 51°17' E 004°20'0 0.0
2017-Feb-12 04:31N 51°17' E 004°20'0 0.0
2017-Feb-12 03:22N 51°17' E 004°20'0 0.0
2017-Feb-12 01:31N 51°17' E 004°20'0 0.0
2017-Feb-11 21:25N 51°17' E 004°20'1 0.9
2017-Feb-11 20:33N 51°17' E 004°20'3 3.1
2017-Feb-11 19:33N 51°19' E 004°16'7 6.8
2017-Feb-11 18:33N 51°22' E 004°07'6 6.0
2017-Feb-11 17:33N 51°24' E 003°58'8 8.0
2017-Feb-11 16:33N 51°22' E 003°46'9 8.9
2017-Feb-11 15:33N 51°25' E 003°33'9 9.4
2017-Feb-11 14:33N 51°24' E 003°18'1312.9
2017-Feb-11 13:33N 51°23' E 002°57'1212.2
2017-Feb-11 12:33N 51°23' E 002°38'5 5.1
2017-Feb-11 11:33N 51°22' E 002°30'1413.3
2017-Feb-11 10:29N 51°15' E 002°10'1112.0
2017-Feb-11 09:33N 51°09' E 001°55'1110.9
2017-Feb-11 08:33N 51°02' E 001°41'1010.4
2017-Feb-11 07:33N 50°55' E 001°29'  

Dump ship's entire track history